Terminal Aerodrome Forecast
Issued by NWS Sterling, VA

Current Version | Previous Version | Text Only | Print | Product List | Glossary Off
Versions: 1 2 3 4 5 6 7 8 9 10 11 12 13 14 15 16 17 18 19

453
FTUS41 KLWX 051503 AAA
TAFMRB
TAF AMD
KMRB 051503Z 0515/0612 VRB04KT P6SM BKN035
      TEMPO 0515/0516 BKN005
     FM051600 30008G16KT P6SM BKN050
     FM052200 31005KT P6SM SCT200
     FM060400 VRB04KT P6SM OVC200=

USA.gov is the U.S. government's official web portal to all federal, state and local government web resources and services.